Milford, Maine
Current Conditions -  °F | °C
As of 11:53 AM on Friday 24 Oct 2014 (Local Time) from KBGR Reporting Station
Haze Haze  
Wind Chill: 39°   Ceiling: 700
Heat Index: 46°   Visibility: 3mi
Dew Point: 44°   Wind: 16mph
Humidity: 93%   Direction: 350°N
Pressure: 29.68"   Gusts: NA
Location:  44.95°N, 68.64°W
Report Text: KBGR 241553Z 35014KT 3SM BR OVC007 08/07 A2968 RMK AO2 DZE44 CIG 005V012 SLP050 P0000 T00780067
Loading
Personal Weather Stations






























Interactive Weather Map
Tropical Storm Tracking
New forecast layout! Learn more

10-Day Weather Forecast

Advertisements
Track Severe Weather on mobile